sensor_id;sensor_type;location;lat;lon;timestamp;temperature;humidity
10441;DHT22;5268;49.346;9.522;2022-08-18T03:23:12;20.80;93.10
10441;DHT22;5268;49.346;9.522;2022-08-18T03:28:15;20.80;93.30
10441;DHT22;5268;49.346;9.522;2022-08-18T03:33:18;20.80;93.10
10441;DHT22;5268;49.346;9.522;2022-08-18T03:38:21;20.70;93.40
10441;DHT22;5268;49.346;9.522;2022-08-18T03:43:23;20.80;93.30
10441;DHT22;5268;49.346;9.522;2022-08-18T03:48:26;20.70;93.10
10441;DHT22;5268;49.346;9.522;2022-08-18T03:53:29;20.70;93.50
10441;DHT22;5268;49.346;9.522;2022-08-18T03:58:34;20.60;93.50
10441;DHT22;5268;49.346;9.522;2022-08-18T04:03:36;20.70;94.00
10441;DHT22;5268;49.346;9.522;2022-08-18T04:08:39;20.60;94.20
10441;DHT22;5268;49.346;9.522;2022-08-18T04:13:41;20.60;93.70
10441;DHT22;5268;49.346;9.522;2022-08-18T04:18:43;20.60;93.70
10441;DHT22;5268;49.346;9.522;2022-08-18T04:23:46;20.50;93.60
10441;DHT22;5268;49.346;9.522;2022-08-18T04:28:48;20.50;93.80
10441;DHT22;5268;49.346;9.522;2022-08-18T04:33:51;20.50;94.00
10441;DHT22;5268;49.346;9.522;2022-08-18T04:38:55;20.50;93.40
10441;DHT22;5268;49.346;9.522;2022-08-18T04:43:59;20.50;94.00
10441;DHT22;5268;49.346;9.522;2022-08-18T04:49:01;20.40;93.70
10441;DHT22;5268;49.346;9.522;2022-08-18T04:54:05;20.40;94.60
10441;DHT22;5268;49.346;9.522;2022-08-18T04:59:08;20.50;95.40
10441;DHT22;5268;49.346;9.522;2022-08-18T05:04:11;20.50;95.40
10441;DHT22;5268;49.346;9.522;2022-08-18T05:09:15;20.40;94.40
10441;DHT22;5268;49.346;9.522;2022-08-18T05:14:17;20.40;94.30
10441;DHT22;5268;49.346;9.522;2022-08-18T05:19:20;20.50;95.00
10441;DHT22;5268;49.346;9.522;2022-08-18T05:24:26;20.50;95.50
10441;DHT22;5268;49.346;9.522;2022-08-18T05:29:29;20.50;95.20
10441;DHT22;5268;49.346;9.522;2022-08-18T05:34:36;20.50;95.10
10441;DHT22;5268;49.346;9.522;2022-08-18T05:39:55;20.60;95.50
10441;DHT22;5268;49.346;9.522;2022-08-18T05:45:05;20.60;95.30
10441;DHT22;5268;49.346;9.522;2022-08-18T05:50:11;20.60;95.30
10441;DHT22;5268;49.346;9.522;2022-08-18T05:55:22;20.60;96.00
10441;DHT22;5268;49.346;9.522;2022-08-18T06:00:49;20.60;95.40
10441;DHT22;5268;49.346;9.522;2022-08-18T06:05:55;20.60;95.40
10441;DHT22;5268;49.346;9.522;2022-08-18T06:11:02;20.60;95.10
10441;DHT22;5268;49.346;9.522;2022-08-18T06:16:11;20.70;95.20
10441;DHT22;5268;49.346;9.522;2022-08-18T06:21:33;20.70;96.30
10441;DHT22;5268;49.346;9.522;2022-08-18T06:26:45;20.70;95.70
10441;DHT22;5268;49.346;9.522;2022-08-18T06:31:57;20.70;95.50
10441;DHT22;5268;49.346;9.522;2022-08-18T06:37:09;20.70;95.30
10441;DHT22;5268;49.346;9.522;2022-08-18T06:42:15;20.80;99.40
10441;DHT22;5268;49.346;9.522;2022-08-18T06:47:24;20.80;98.30
10441;DHT22;5268;49.346;9.522;2022-08-18T06:52:29;20.70;99.90
10441;DHT22;5268;49.346;9.522;2022-08-18T06:57:36;20.80;97.70
10441;DHT22;5268;49.346;9.522;2022-08-18T07:02:47;20.70;97.90
10441;DHT22;5268;49.346;9.522;2022-08-18T07:08:05;20.80;97.10
10441;DHT22;5268;49.346;9.522;2022-08-18T07:13:23;20.90;97.40
10441;DHT22;5268;49.346;9.522;2022-08-18T07:18:28;20.90;97.10
10441;DHT22;5268;49.346;9.522;2022-08-18T07:23:32;21.00;96.80
10441;DHT22;5268;49.346;9.522;2022-08-18T07:28:39;21.10;97.10
10441;DHT22;5268;49.346;9.522;2022-08-18T07:33:43;21.20;96.80
10441;DHT22;5268;49.346;9.522;2022-08-18T07:38:50;21.20;96.80
10441;DHT22;5268;49.346;9.522;2022-08-18T07:44:04;21.40;96.80
10441;DHT22;5268;49.346;9.522;2022-08-18T07:49:09;21.60;97.20
10441;DHT22;5268;49.346;9.522;2022-08-18T07:54:24;21.70;97.10
10441;DHT22;5268;49.346;9.522;2022-08-18T07:59:34;21.80;97.00
10441;DHT22;5268;49.346;9.522;2022-08-18T08:04:47;22.00;97.30
10441;DHT22;5268;49.346;9.522;2022-08-18T08:09:59;22.20;99.30
10441;DHT22;5268;49.346;9.522;2022-08-18T08:15:10;22.30;97.60
10441;DHT22;5268;49.346;9.522;2022-08-18T08:20:20;22.50;97.40
10441;DHT22;5268;49.346;9.522;2022-08-18T08:25:28;22.70;97.30
10441;DHT22;5268;49.346;9.522;2022-08-18T08:30:36;22.70;97.20
10441;DHT22;5268;49.346;9.522;2022-08-18T08:35:46;22.80;96.90
10441;DHT22;5268;49.346;9.522;2022-08-18T08:40:53;22.90;96.90
10441;DHT22;5268;49.346;9.522;2022-08-18T08:46:05;23.00;96.80
10441;DHT22;5268;49.346;9.522;2022-08-18T08:51:23;23.00;97.20
10441;DHT22;5268;49.346;9.522;2022-08-18T08:56:32;23.10;96.80
10441;DHT22;5268;49.346;9.522;2022-08-18T09:01:43;23.00;97.50
10441;DHT22;5268;49.346;9.522;2022-08-18T09:06:53;23.00;96.80
10441;DHT22;5268;49.346;9.522;2022-08-18T09:12:11;22.90;97.00
10441;DHT22;5268;49.346;9.522;2022-08-18T09:17:37;22.70;96.70
10441;DHT22;5268;49.346;9.522;2022-08-18T09:22:47;22.70;96.90
10441;DHT22;5268;49.346;9.522;2022-08-18T09:28:06;22.60;97.10
10441;DHT22;5268;49.346;9.522;2022-08-18T09:33:23;22.60;97.90
10441;DHT22;5268;49.346;9.522;2022-08-18T09:38:29;22.50;98.50
10441;DHT22;5268;49.346;9.522;2022-08-18T09:43:57;22.50;97.00
10441;DHT22;5268;49.346;9.522;2022-08-18T09:54:59;23.10;97.90
10441;DHT22;5268;49.346;9.522;2022-08-18T10:00:24;23.60;97.60
10441;DHT22;5268;49.346;9.522;2022-08-18T10:05:28;23.90;98.10
10441;DHT22;5268;49.346;9.522;2022-08-18T10:10:36;24.10;97.00
10441;DHT22;5268;49.346;9.522;2022-08-18T10:15:51;24.40;97.30
10441;DHT22;5268;49.346;9.522;2022-08-18T10:21:08;24.60;96.90
10441;DHT22;5268;49.346;9.522;2022-08-18T10:32:17;25.00;97.70
10441;DHT22;5268;49.346;9.522;2022-08-18T10:37:25;25.60;97.50
10441;DHT22;5268;49.346;9.522;2022-08-18T10:42:30;26.10;97.10
10441;DHT22;5268;49.346;9.522;2022-08-18T10:47:35;26.60;96.60
10441;DHT22;5268;49.346;9.522;2022-08-18T10:52:57;26.60;93.90
10441;DHT22;5268;49.346;9.522;2022-08-18T10:58:11;26.90;95.10
10441;DHT22;5268;49.346;9.522;2022-08-18T11:03:29;27.20;95.30
10441;DHT22;5268;49.346;9.522;2022-08-18T11:08:44;27.30;94.50
10441;DHT22;5268;49.346;9.522;2022-08-18T11:13:53;27.30;92.40
10441;DHT22;5268;49.346;9.522;2022-08-18T11:19:06;27.50;94.10
10441;DHT22;5268;49.346;9.522;2022-08-18T11:24:12;27.70;93.60
10441;DHT22;5268;49.346;9.522;2022-08-18T11:29:25;28.00;93.60
10441;DHT22;5268;49.346;9.522;2022-08-18T11:34:35;28.20;93.30
10441;DHT22;5268;49.346;9.522;2022-08-18T11:39:48;28.30;92.60
10441;DHT22;5268;49.346;9.522;2022-08-18T11:44:50;28.30;90.70
10441;DHT22;5268;49.346;9.522;2022-08-18T11:50:06;28.30;91.30
10441;DHT22;5268;49.346;9.522;2022-08-18T11:55:18;28.30;91.60
10441;DHT22;5268;49.346;9.522;2022-08-18T12:00:51;28.40;92.00
10441;DHT22;5268;49.346;9.522;2022-08-18T12:05:57;28.50;89.90
10441;DHT22;5268;49.346;9.522;2022-08-18T12:11:02;28.60;91.50
10441;DHT22;5268;49.346;9.522;2022-08-18T12:16:10;28.60;90.50
10441;DHT22;5268;49.346;9.522;2022-08-18T12:21:14;28.60;90.20
10441;DHT22;5268;49.346;9.522;2022-08-18T12:26:16;28.80;91.10
10441;DHT22;5268;49.346;9.522;2022-08-18T12:31:18;28.80;88.80
10441;DHT22;5268;49.346;9.522;2022-08-18T12:36:21;28.60;84.50
10441;DHT22;5268;49.346;9.522;2022-08-18T12:41:23;28.50;88.90
10441;DHT22;5268;49.346;9.522;2022-08-18T12:46:26;28.50;90.10
10441;DHT22;5268;49.346;9.522;2022-08-18T12:51:29;28.40;88.30
10441;DHT22;5268;49.346;9.522;2022-08-18T12:56:31;28.40;87.80
10441;DHT22;5268;49.346;9.522;2022-08-18T13:01:37;28.50;90.10
10441;DHT22;5268;49.346;9.522;2022-08-18T13:06:44;28.60;84.70
10441;DHT22;5268;49.346;9.522;2022-08-18T13:11:47;28.70;89.40
10441;DHT22;5268;49.346;9.522;2022-08-18T13:16:49;28.80;88.60
10441;DHT22;5268;49.346;9.522;2022-08-18T13:21:53;28.80;87.30
10441;DHT22;5268;49.346;9.522;2022-08-18T13:26:55;28.70;86.70
10441;DHT22;5268;49.346;9.522;2022-08-18T13:31:57;28.70;83.90
10441;DHT22;5268;49.346;9.522;2022-08-18T13:37:00;28.70;86.70
10441;DHT22;5268;49.346;9.522;2022-08-18T13:42:03;28.60;86.00
10441;DHT22;5268;49.346;9.522;2022-08-18T13:47:05;28.40;83.40
10441;DHT22;5268;49.346;9.522;2022-08-18T13:52:10;28.50;83.50
10441;DHT22;5268;49.346;9.522;2022-08-18T13:57:14;28.50;83.70
10441;DHT22;5268;49.346;9.522;2022-08-18T14:02:16;28.70;84.40
10441;DHT22;5268;49.346;9.522;2022-08-18T14:07:19;28.60;83.20
10441;DHT22;5268;49.346;9.522;2022-08-18T14:12:23;28.70;82.90
10441;DHT22;5268;49.346;9.522;2022-08-18T14:17:26;28.80;81.70
10441;DHT22;5268;49.346;9.522;2022-08-18T14:22:29;28.50;84.20
10441;DHT22;5268;49.346;9.522;2022-08-18T14:27:48;28.60;84.30
10441;DHT22;5268;49.346;9.522;2022-08-18T14:32:51;28.60;86.10
10441;DHT22;5268;49.346;9.522;2022-08-18T14:37:55;28.90;84.70
10441;DHT22;5268;49.346;9.522;2022-08-18T14:42:57;29.00;85.50
10441;DHT22;5268;49.346;9.522;2022-08-18T14:47:59;29.10;86.20
10441;DHT22;5268;49.346;9.522;2022-08-18T14:53:02;29.30;85.90
10441;DHT22;5268;49.346;9.522;2022-08-18T14:58:04;29.30;84.30
10441;DHT22;5268;49.346;9.522;2022-08-18T15:03:09;29.40;83.60
10441;DHT22;5268;49.346;9.522;2022-08-18T15:08:12;29.30;85.00
10441;DHT22;5268;49.346;9.522;2022-08-18T15:13:15;29.30;85.30
10441;DHT22;5268;49.346;9.522;2022-08-18T15:18:17;29.20;83.80
10441;DHT22;5268;49.346;9.522;2022-08-18T15:23:21;29.10;84.80
10441;DHT22;5268;49.346;9.522;2022-08-18T15:28:52;29.00;84.10
10441;DHT22;5268;49.346;9.522;2022-08-18T15:33:54;28.90;84.10
10441;DHT22;5268;49.346;9.522;2022-08-18T15:38:58;28.80;84.80
10441;DHT22;5268;49.346;9.522;2022-08-18T15:44:01;28.70;80.10
10441;DHT22;5268;49.346;9.522;2022-08-18T15:49:04;28.70;83.50
10441;DHT22;5268;49.346;9.522;2022-08-18T15:54:10;28.70;84.80
10441;DHT22;5268;49.346;9.522;2022-08-18T15:59:12;28.90;82.70
10441;DHT22;5268;49.346;9.522;2022-08-18T16:04:14;28.90;84.40
10441;DHT22;5268;49.346;9.522;2022-08-18T16:09:18;28.80;83.30
10441;DHT22;5268;49.346;9.522;2022-08-18T16:14:20;28.80;83.70
10441;DHT22;5268;49.346;9.522;2022-08-18T16:19:22;28.80;83.20
10441;DHT22;5268;49.346;9.522;2022-08-18T16:24:25;28.80;84.00
10441;DHT22;5268;49.346;9.522;2022-08-18T16:29:27;28.70;84.00
10441;DHT22;5268;49.346;9.522;2022-08-18T16:34:29;28.60;84.00
10441;DHT22;5268;49.346;9.522;2022-08-18T16:39:33;28.60;83.90
10441;DHT22;5268;49.346;9.522;2022-08-18T16:44:35;28.60;80.90
10441;DHT22;5268;49.346;9.522;2022-08-18T16:49:37;28.50;83.30
10441;DHT22;5268;49.346;9.522;2022-08-18T16:54:41;28.40;83.40
10441;DHT22;5268;49.346;9.522;2022-08-18T16:59:43;28.30;83.40
10441;DHT22;5268;49.346;9.522;2022-08-18T17:05:03;28.10;84.00
10441;DHT22;5268;49.346;9.522;2022-08-18T17:10:07;28.10;84.00
10441;DHT22;5268;49.346;9.522;2022-08-18T17:15:10;28.00;84.20
10441;DHT22;5268;49.346;9.522;2022-08-18T17:20:14;27.90;84.30
10441;DHT22;5268;49.346;9.522;2022-08-18T17:25:21;27.80;84.50
10441;DHT22;5268;49.346;9.522;2022-08-18T17:30:26;27.80;84.50
10441;DHT22;5268;49.346;9.522;2022-08-18T17:35:34;27.70;83.80
10441;DHT22;5268;49.346;9.522;2022-08-18T17:40:43;27.50;83.40
10441;DHT22;5268;49.346;9.522;2022-08-18T17:45:51;27.30;83.50
10441;DHT22;5268;49.346;9.522;2022-08-18T17:50:57;27.10;84.00
10441;DHT22;5268;49.346;9.522;2022-08-18T17:56:23;27.00;83.40
10441;DHT22;5268;49.346;9.522;2022-08-18T18:01:27;26.90;83.10
10441;DHT22;5268;49.346;9.522;2022-08-18T18:06:37;26.70;83.20
10441;DHT22;5268;49.346;9.522;2022-08-18T18:11:42;26.50;83.00
10441;DHT22;5268;49.346;9.522;2022-08-18T18:16:59;26.40;82.90
10441;DHT22;5268;49.346;9.522;2022-08-18T18:22:04;26.20;83.50
10441;DHT22;5268;49.346;9.522;2022-08-18T18:27:26;26.10;83.50
10441;DHT22;5268;49.346;9.522;2022-08-18T18:32:31;26.00;83.70
10441;DHT22;5268;49.346;9.522;2022-08-18T18:37:39;25.80;83.80
10441;DHT22;5268;49.346;9.522;2022-08-18T18:42:46;25.70;84.00
10441;DHT22;5268;49.346;9.522;2022-08-18T18:47:55;25.60;84.30
10441;DHT22;5268;49.346;9.522;2022-08-18T18:53:10;25.50;84.50
10441;DHT22;5268;49.346;9.522;2022-08-18T18:58:22;25.40;84.90
10441;DHT22;5268;49.346;9.522;2022-08-18T19:03:32;25.30;84.80
10441;DHT22;5268;49.346;9.522;2022-08-18T19:08:43;25.20;84.90
10441;DHT22;5268;49.346;9.522;2022-08-18T19:13:53;25.20;85.20
10441;DHT22;5268;49.346;9.522;2022-08-18T19:19:02;25.20;85.20
10441;DHT22;5268;49.346;9.522;2022-08-18T19:24:10;25.10;85.30
10441;DHT22;5268;49.346;9.522;2022-08-18T19:29:19;25.10;85.80
10441;DHT22;5268;49.346;9.522;2022-08-18T19:34:27;25.00;85.40
10441;DHT22;5268;49.346;9.522;2022-08-18T19:39:36;25.00;85.60
10441;DHT22;5268;49.346;9.522;2022-08-18T19:44:47;24.90;85.70
10441;DHT22;5268;49.346;9.522;2022-08-18T19:50:11;24.90;86.20
10441;DHT22;5268;49.346;9.522;2022-08-18T19:55:24;24.80;86.10
10441;DHT22;5268;49.346;9.522;2022-08-18T20:00:39;24.80;86.10
10441;DHT22;5268;49.346;9.522;2022-08-18T20:05:57;24.70;86.10
10441;DHT22;5268;49.346;9.522;2022-08-18T20:11:26;24.70;87.80
10441;DHT22;5268;49.346;9.522;2022-08-18T20:16:34;24.60;86.80
10441;DHT22;5268;49.346;9.522;2022-08-18T20:21:42;24.60;87.00
10441;DHT22;5268;49.346;9.522;2022-08-18T20:26:47;24.50;88.60
10441;DHT22;5268;49.346;9.522;2022-08-18T20:31:58;24.40;88.30
10441;DHT22;5268;49.346;9.522;2022-08-18T20:37:06;24.30;88.10
10441;DHT22;5268;49.346;9.522;2022-08-18T20:42:44;24.30;87.80
10441;DHT22;5268;49.346;9.522;2022-08-18T20:53:45;24.10;90.30
10441;DHT22;5268;49.346;9.522;2022-08-18T20:58:54;24.10;88.10
10441;DHT22;5268;49.346;9.522;2022-08-18T21:03:59;24.10;87.60
10441;DHT22;5268;49.346;9.522;2022-08-18T21:09:01;24.00;87.70
10441;DHT22;5268;49.346;9.522;2022-08-18T21:14:03;24.00;87.60
10441;DHT22;5268;49.346;9.522;2022-08-18T21:19:09;24.00;87.80
10441;DHT22;5268;49.346;9.522;2022-08-18T21:24:21;23.90;87.70
10441;DHT22;5268;49.346;9.522;2022-08-18T21:29:23;23.90;88.80
